Saturday, May 26, 2018, 12:31 AM GMT
Back to Local

CYHU, Saint Hubert Airport

Location: , , Canada Lat: 45.517
Local Time: 12:31 AM GMT ( 0:31 GMT) Lon: -73.417
Time Zone: GMT Elev: 88 ft

Show me the last for .
Show Decoded

2018-05-26 00:00 METAR CYHU 260000Z AUTO 24018G28KT 9SM OVC140 21/15 A2966 RMK SLP045 DENSITY ALT
                 1000FT =
2018-05-25 23:00 METAR CYHU 252300Z AUTO 25022G31KT 9SM OVC160 23/14 A2965 RMK SLP040 DENSITY ALT
                 1300FT =
2018-05-25 22:00 METAR CYHU 252200Z AUTO 24021G31KT 9SM BKN190 23/14 A2964 RMK SLP038 DENSITY ALT
                 1300FT =
2018-05-25 21:00 METAR CYHU 252100Z AUTO 25020G28KT 9SM BKN190 24/15 A2964 RMK SLP038 DENSITY ALT
                 1500FT =
2018-05-25 20:00 METAR CYHU 252000Z AUTO 24019G26KT 9SM SCT190 BKN220 23/15 A2966 RMK SLP044
                 DENSITY ALT 1300FT =
2018-05-25 19:00 METAR CYHU 251900Z AUTO 25022G28KT 9SM CLR 24/16 A2968 RMK SLP050 DENSITY ALT
                 1400FT =
2018-05-25 18:00 METAR CYHU 251800Z AUTO 23023G31KT 9SM CLR 23/14 A2969 RMK SLP054 DENSITY ALT
                 1300FT =
2018-05-25 17:00 METAR CYHU 251700Z AUTO 24018G28KT 9SM OVC110 23/16 A2970 RMK SLP060 DENSITY ALT
                 1300FT =
2018-05-25 16:00 METAR CYHU 251600Z AUTO 24022G31KT 9SM OVC110 23/14 A2972 RMK SLP066 DENSITY ALT
                 1200FT =
2018-05-25 15:00 METAR CYHU 251500Z AUTO 24017G25KT 9SM FEW110 24/14 A2973 RMK SLP069 DENSITY ALT
                 1300FT =
2018-05-25 14:00 METAR CYHU 251400Z AUTO 24016G25KT 9SM CLR 22/14 A2975 RMK SLP075 DENSITY ALT
                 1100FT =
2018-05-25 13:00 METAR CYHU 251300Z AUTO 24015G23KT 9SM CLR 20/12 A2977 RMK SLP081 DENSITY ALT
                 800FT =
2018-05-25 12:00 METAR CYHU 251200Z AUTO 25019G24KT 9SM CLR 19/11 A2978 RMK SLP084 DENSITY ALT
                 600FT =
2018-05-25 11:00 METAR CYHU 251100Z AUTO 25018G24KT 9SM CLR 17/11 A2978 RMK SLP086 DENSITY ALT
                 500FT =
2018-05-25 10:00 METAR CYHU 251000Z AUTO 25017G25KT 9SM SCT100 17/10 A2979 RMK SLP088 DENSITY ALT
                 500FT =
2018-05-25 09:00 METAR CYHU 250900Z AUTO 25016G25KT 9SM CLR 17/10 A2978 RMK SLP087 DENSITY ALT
                 500FT =
2018-05-25 08:00 METAR CYHU 250800Z AUTO 25017G23KT 9SM CLR 18/10 A2979 RMK SLP088 DENSITY ALT
                 500FT =
2018-05-25 07:00 METAR CYHU 250700Z AUTO 25017KT 9SM CLR 18/10 A2980 RMK SLP092 DENSITY ALT 500FT
                 =
2018-05-25 06:00 METAR CYHU 250600Z AUTO 24015G23KT 9SM CLR 18/09 A2981 RMK SLP098 DENSITY ALT
                 500FT =
2018-05-25 05:00 METAR CYHU 250500Z AUTO 22011G16KT 9SM CLR 17/08 A2983 RMK SLP105 DENSITY ALT
                 400FT =
2018-05-25 04:00 METAR CYHU 250400Z AUTO 20008KT 9SM CLR 17/05 A2985 RMK SLP111 DENSITY ALT 300FT
                 =
2018-05-25 03:00 METAR CYHU 250300Z AUTO 19007KT 9SM CLR 16/04 A2988 RMK SLP121 DENSITY ALT 200FT
                 =
2018-05-25 02:00 METAR CYHU 250200Z AUTO 19010KT 9SM CLR 17/04 A2991 RMK SLP130 DENSITY ALT 300FT
                 =
2018-05-25 01:00 METAR CYHU 250100Z AUTO 19007KT 9SM CLR 19/04 A2992 RMK SLP134 DENSITY ALT 500FT
                 =

Support USWX by starting your Amazon purchase here.